Woodland Addition, Illinois
Current Conditions -  °F | °C
As of 1:15 AM on Saturday 25 Oct 2014 (Local Time) from KVYS Reporting Station
Overcast Overcast  
Wind Chill: 58°   Ceiling: 2200
Heat Index: 58°   Visibility: 10mi
Dew Point: 52°   Wind: 6mph
Humidity: 81%   Direction: 260°W
Pressure: 29.93"   Gusts: NA
Location:  41.4349°N, 88.8687°W
Report Text: KVYS 250615Z AUTO 26005KT 10SM BKN022 OVC029 14/11 A2993 RMK AO2 T01420110
Loading
Personal Weather Stations






























Interactive Weather Map
Tropical Storm Tracking
New forecast layout! Learn more

10-Day Weather Forecast

Advertisements
Track Severe Weather on mobile